sensor_id;sensor_type;location;lat;lon;timestamp;P1;durP1;ratioP1;P2;durP2;ratioP2
16856;SDS011;8544;51.312;12.276;2022-10-17T00:07:35;37.57;;;35.57;;
16856;SDS011;8544;51.312;12.276;2022-10-17T00:10:04;41.20;;;39.00;;
16856;SDS011;8544;51.312;12.276;2022-10-17T00:12:47;46.60;;;44.10;;
16856;SDS011;8544;51.312;12.276;2022-10-17T00:15:28;47.40;;;44.83;;
16856;SDS011;8544;51.312;12.276;2022-10-17T00:18:13;50.07;;;47.37;;
16856;SDS011;8544;51.312;12.276;2022-10-17T00:20:45;48.30;;;45.70;;
16856;SDS011;8544;51.312;12.276;2022-10-17T00:23:25;47.97;;;45.40;;
16856;SDS011;8544;51.312;12.276;2022-10-17T00:25:57;52.53;;;49.70;;
16856;SDS011;8544;51.312;12.276;2022-10-17T00:28:28;50.07;;;47.33;;
16856;SDS011;8544;51.312;12.276;2022-10-17T00:52:33;38.83;;;36.80;;
16856;SDS011;8544;51.312;12.276;2022-10-17T00:55:05;40.33;;;38.20;;
16856;SDS011;8544;51.312;12.276;2022-10-17T00:58:01;40.17;;;38.03;;
16856;SDS011;8544;51.312;12.276;2022-10-17T01:01:05;42.90;;;40.60;;
16856;SDS011;8544;51.312;12.276;2022-10-17T01:04:04;39.17;;;37.10;;
16856;SDS011;8544;51.312;12.276;2022-10-17T01:07:12;38.30;;;36.30;;
16856;SDS011;8544;51.312;12.276;2022-10-17T01:10:10;36.90;;;34.97;;
16856;SDS011;8544;51.312;12.276;2022-10-17T01:13:03;37.90;;;35.87;;
16856;SDS011;8544;51.312;12.276;2022-10-17T01:15:40;41.53;;;39.27;;
16856;SDS011;8544;51.312;12.276;2022-10-17T01:18:28;38.83;;;36.80;;
16856;SDS011;8544;51.312;12.276;2022-10-17T01:21:15;38.73;;;36.67;;
16856;SDS011;8544;51.312;12.276;2022-10-17T01:26:48;36.30;;;34.40;;
16856;SDS011;8544;51.312;12.276;2022-10-17T01:29:27;40.67;;;38.53;;
16856;SDS011;8544;51.312;12.276;2022-10-17T01:32:09;40.30;;;38.20;;
16856;SDS011;8544;51.312;12.276;2022-10-17T01:35:15;39.57;;;37.47;;
16856;SDS011;8544;51.312;12.276;2022-10-17T01:41:19;45.13;;;42.73;;
16856;SDS011;8544;51.312;12.276;2022-10-17T01:43:56;41.47;;;39.27;;
16856;SDS011;8544;51.312;12.276;2022-10-17T01:46:36;40.93;;;38.77;;
16856;SDS011;8544;51.312;12.276;2022-10-17T01:49:25;40.23;;;38.10;;
16856;SDS011;8544;51.312;12.276;2022-10-17T01:52:01;42.37;;;40.10;;
16856;SDS011;8544;51.312;12.276;2022-10-17T01:54:45;45.70;;;43.00;;
16856;SDS011;8544;51.312;12.276;2022-10-17T02:00:53;58.10;;;54.60;;
16856;SDS011;8544;51.312;12.276;2022-10-17T02:03:23;46.13;;;43.63;;
16856;SDS011;8544;51.312;12.276;2022-10-17T02:06:11;43.10;;;40.80;;
16856;SDS011;8544;51.312;12.276;2022-10-17T02:08:45;46.37;;;43.90;;
16856;SDS011;8544;51.312;12.276;2022-10-17T02:11:24;44.33;;;41.97;;
16856;SDS011;8544;51.312;12.276;2022-10-17T02:18:14;41.47;;;39.27;;
16856;SDS011;8544;51.312;12.276;2022-10-17T02:21:36;39.57;;;37.47;;
16856;SDS011;8544;51.312;12.276;2022-10-17T02:27:46;43.30;;;41.00;;
16856;SDS011;8544;51.312;12.276;2022-10-17T02:30:50;42.23;;;40.00;;
16856;SDS011;8544;51.312;12.276;2022-10-17T02:33:28;42.33;;;40.07;;
16856;SDS011;8544;51.312;12.276;2022-10-17T02:36:33;51.50;;;48.73;;
16856;SDS011;8544;51.312;12.276;2022-10-17T02:39:18;50.13;;;47.43;;
16856;SDS011;8544;51.312;12.276;2022-10-17T02:42:02;45.87;;;43.40;;
16856;SDS011;8544;51.312;12.276;2022-10-17T02:45:03;45.63;;;43.20;;
16856;SDS011;8544;51.312;12.276;2022-10-17T02:47:34;57.30;;;54.20;;
16856;SDS011;8544;51.312;12.276;2022-10-17T02:50:15;47.07;;;44.53;;
16856;SDS011;8544;51.312;12.276;2022-10-17T03:03:26;42.87;;;40.57;;
16856;SDS011;8544;51.312;12.276;2022-10-17T03:09:37;40.77;;;38.57;;
16856;SDS011;8544;51.312;12.276;2022-10-17T03:12:08;40.33;;;38.17;;
16856;SDS011;8544;51.312;12.276;2022-10-17T03:14:45;46.10;;;43.60;;
16856;SDS011;8544;51.312;12.276;2022-10-17T03:17:17;42.33;;;40.10;;
16856;SDS011;8544;51.312;12.276;2022-10-17T03:19:49;44.00;;;41.67;;
16856;SDS011;8544;51.312;12.276;2022-10-17T03:22:22;41.93;;;39.73;;
16856;SDS011;8544;51.312;12.276;2022-10-17T03:24:52;45.23;;;42.53;;
16856;SDS011;8544;51.312;12.276;2022-10-17T03:27:24;53.10;;;50.23;;
16856;SDS011;8544;51.312;12.276;2022-10-17T03:30:13;42.07;;;39.83;;
16856;SDS011;8544;51.312;12.276;2022-10-17T03:32:44;43.47;;;41.17;;
16856;SDS011;8544;51.312;12.276;2022-10-17T03:35:19;44.20;;;41.73;;
16856;SDS011;8544;51.312;12.276;2022-10-17T03:37:47;43.30;;;41.00;;
16856;SDS011;8544;51.312;12.276;2022-10-17T03:40:16;40.73;;;38.57;;
16856;SDS011;8544;51.312;12.276;2022-10-17T03:43:01;41.87;;;39.67;;
16856;SDS011;8544;51.312;12.276;2022-10-17T03:45:47;38.70;;;36.67;;
16856;SDS011;8544;51.312;12.276;2022-10-17T03:48:17;40.13;;;38.03;;
16856;SDS011;8544;51.312;12.276;2022-10-17T03:50:48;40.27;;;38.17;;
16856;SDS011;8544;51.312;12.276;2022-10-17T03:53:16;40.13;;;38.03;;
16856;SDS011;8544;51.312;12.276;2022-10-17T03:56:07;39.63;;;37.53;;
16856;SDS011;8544;51.312;12.276;2022-10-17T03:59:00;35.23;;;33.40;;
16856;SDS011;8544;51.312;12.276;2022-10-17T04:01:29;34.63;;;32.83;;
16856;SDS011;8544;51.312;12.276;2022-10-17T04:04:11;33.40;;;31.67;;
16856;SDS011;8544;51.312;12.276;2022-10-17T04:06:42;42.90;;;40.67;;
16856;SDS011;8544;51.312;12.276;2022-10-17T04:09:17;36.40;;;34.50;;
16856;SDS011;8544;51.312;12.276;2022-10-17T04:11:45;35.83;;;33.97;;
16856;SDS011;8544;51.312;12.276;2022-10-17T04:14:14;35.17;;;33.30;;
16856;SDS011;8544;51.312;12.276;2022-10-17T04:16:45;45.70;;;43.20;;
16856;SDS011;8544;51.312;12.276;2022-10-17T04:19:19;35.47;;;33.63;;
16856;SDS011;8544;51.312;12.276;2022-10-17T04:21:50;49.97;;;47.30;;
16856;SDS011;8544;51.312;12.276;2022-10-17T04:24:18;39.67;;;37.57;;
16856;SDS011;8544;51.312;12.276;2022-10-17T04:26:48;60.40;;;57.13;;
16856;SDS011;8544;51.312;12.276;2022-10-17T04:42:31;33.87;;;32.13;;
16856;SDS011;8544;51.312;12.276;2022-10-17T04:45:04;37.23;;;35.27;;
16856;SDS011;8544;51.312;12.276;2022-10-17T04:47:49;38.10;;;36.10;;
16856;SDS011;8544;51.312;12.276;2022-10-17T04:50:21;33.40;;;31.70;;
16856;SDS011;8544;51.312;12.276;2022-10-17T04:52:55;35.13;;;33.30;;
16856;SDS011;8544;51.312;12.276;2022-10-17T04:55:27;32.23;;;30.57;;
16856;SDS011;8544;51.312;12.276;2022-10-17T04:58:09;35.07;;;33.23;;
16856;SDS011;8544;51.312;12.276;2022-10-17T05:00:42;38.60;;;36.57;;
16856;SDS011;8544;51.312;12.276;2022-10-17T05:03:11;34.27;;;32.50;;
16856;SDS011;8544;51.312;12.276;2022-10-17T05:05:40;37.03;;;35.10;;
16856;SDS011;8544;51.312;12.276;2022-10-17T05:08:16;29.00;;;27.57;;
16856;SDS011;8544;51.312;12.276;2022-10-17T05:10:49;32.53;;;30.87;;
16856;SDS011;8544;51.312;12.276;2022-10-17T05:13:20;39.43;;;37.20;;
16856;SDS011;8544;51.312;12.276;2022-10-17T05:18:56;38.97;;;36.90;;
16856;SDS011;8544;51.312;12.276;2022-10-17T05:21:34;50.30;;;47.60;;
16856;SDS011;8544;51.312;12.276;2022-10-17T05:24:17;34.47;;;32.67;;
16856;SDS011;8544;51.312;12.276;2022-10-17T05:26:50;60.30;;;57.03;;
16856;SDS011;8544;51.312;12.276;2022-10-17T05:29:18;51.77;;;48.97;;
16856;SDS011;8544;51.312;12.276;2022-10-17T05:31:46;36.60;;;34.70;;
16856;SDS011;8544;51.312;12.276;2022-10-17T05:34:19;33.43;;;31.70;;
16856;SDS011;8544;51.312;12.276;2022-10-17T05:39:45;30.67;;;29.10;;
16856;SDS011;8544;51.312;12.276;2022-10-17T05:46:42;31.17;;;29.57;;
16856;SDS011;8544;51.312;12.276;2022-10-17T05:52:41;29.17;;;27.67;;
16856;SDS011;8544;51.312;12.276;2022-10-17T05:55:15;30.97;;;29.40;;
16856;SDS011;8544;51.312;12.276;2022-10-17T05:58:10;39.83;;;37.73;;
16856;SDS011;8544;51.312;12.276;2022-10-17T06:07:04;27.70;;;26.30;;
16856;SDS011;8544;51.312;12.276;2022-10-17T06:09:41;31.33;;;29.73;;
16856;SDS011;8544;51.312;12.276;2022-10-17T06:12:29;29.30;;;27.73;;
16856;SDS011;8544;51.312;12.276;2022-10-17T06:15:00;33.30;;;31.57;;
16856;SDS011;8544;51.312;12.276;2022-10-17T06:17:30;32.57;;;30.90;;
16856;SDS011;8544;51.312;12.276;2022-10-17T06:20:03;38.13;;;31.37;;
16856;SDS011;8544;51.312;12.276;2022-10-17T06:22:44;34.87;;;33.07;;
16856;SDS011;8544;51.312;12.276;2022-10-17T06:25:19;32.40;;;30.73;;
16856;SDS011;8544;51.312;12.276;2022-10-17T06:27:58;39.90;;;37.80;;
16856;SDS011;8544;51.312;12.276;2022-10-17T06:30:29;32.03;;;30.43;;
16856;SDS011;8544;51.312;12.276;2022-10-17T06:33:07;33.87;;;32.10;;
16856;SDS011;8544;51.312;12.276;2022-10-17T06:35:39;41.80;;;39.53;;
16856;SDS011;8544;51.312;12.276;2022-10-17T06:38:17;30.73;;;29.13;;
16856;SDS011;8544;51.312;12.276;2022-10-17T06:40:45;28.57;;;27.13;;
16856;SDS011;8544;51.312;12.276;2022-10-17T06:43:13;32.17;;;30.53;;
16856;SDS011;8544;51.312;12.276;2022-10-17T06:45:41;32.00;;;30.37;;
16856;SDS011;8544;51.312;12.276;2022-10-17T06:48:09;40.03;;;37.93;;
16856;SDS011;8544;51.312;12.276;2022-10-17T06:50:37;31.20;;;29.63;;
16856;SDS011;8544;51.312;12.276;2022-10-17T06:53:05;33.70;;;31.97;;
16856;SDS011;8544;51.312;12.276;2022-10-17T06:55:35;38.83;;;36.80;;
16856;SDS011;8544;51.312;12.276;2022-10-17T06:58:02;91.43;;;86.30;;
16856;SDS011;8544;51.312;12.276;2022-10-17T07:00:30;41.57;;;39.43;;
16856;SDS011;8544;51.312;12.276;2022-10-17T07:02:58;36.20;;;34.33;;
16856;SDS011;8544;51.312;12.276;2022-10-17T07:05:26;61.53;;;58.23;;
16856;SDS011;8544;51.312;12.276;2022-10-17T07:07:54;77.90;;;73.60;;
16856;SDS011;8544;51.312;12.276;2022-10-17T07:10:22;46.97;;;44.47;;
16856;SDS011;8544;51.312;12.276;2022-10-17T07:12:51;55.47;;;52.50;;
16856;SDS011;8544;51.312;12.276;2022-10-17T07:15:20;58.53;;;55.40;;
16856;SDS011;8544;51.312;12.276;2022-10-17T07:18:13;45.23;;;42.83;;
16856;SDS011;8544;51.312;12.276;2022-10-17T07:31:25;22.30;;;21.20;;
16856;SDS011;8544;51.312;12.276;2022-10-17T07:33:54;26.03;;;24.73;;
16856;SDS011;8544;51.312;12.276;2022-10-17T07:36:21;21.40;;;20.30;;
16856;SDS011;8544;51.312;12.276;2022-10-17T07:38:50;24.50;;;23.30;;
16856;SDS011;8544;51.312;12.276;2022-10-17T07:41:21;22.60;;;21.50;;
16856;SDS011;8544;51.312;12.276;2022-10-17T07:43:52;22.87;;;21.77;;
16856;SDS011;8544;51.312;12.276;2022-10-17T07:46:20;22.17;;;21.10;;
16856;SDS011;8544;51.312;12.276;2022-10-17T07:48:49;25.37;;;24.07;;
16856;SDS011;8544;51.312;12.276;2022-10-17T07:51:17;25.63;;;24.37;;
16856;SDS011;8544;51.312;12.276;2022-10-17T09:22:56;53.35;;;50.42;;
16856;SDS011;8544;51.312;12.276;2022-10-17T09:25:27;42.40;;;40.17;;
16856;SDS011;8544;51.312;12.276;2022-10-17T09:28:37;26.10;;;24.80;;
16856;SDS011;8544;51.312;12.276;2022-10-17T09:31:33;26.08;;;24.77;;
16856;SDS011;8544;51.312;12.276;2022-10-17T09:34:08;21.17;;;20.17;;
16856;SDS011;8544;51.312;12.276;2022-10-17T09:36:40;39.03;;;36.92;;
16856;SDS011;8544;51.312;12.276;2022-10-17T09:42:07;26.60;;;25.20;;
16856;SDS011;8544;51.312;12.276;2022-10-17T09:44:53;28.20;;;26.75;;
16856;SDS011;8544;51.312;12.276;2022-10-17T09:47:27;30.40;;;28.80;;
16856;SDS011;8544;51.312;12.276;2022-10-17T09:53:37;28.00;;;26.60;;
16856;SDS011;8544;51.312;12.276;2022-10-17T09:56:15;26.33;;;25.02;;
16856;SDS011;8544;51.312;12.276;2022-10-17T10:01:48;26.95;;;25.55;;
16856;SDS011;8544;51.312;12.276;2022-10-17T10:04:25;22.55;;;21.45;;
16856;SDS011;8544;51.312;12.276;2022-10-17T10:07:05;22.35;;;21.25;;
16856;SDS011;8544;51.312;12.276;2022-10-17T10:09:44;20.98;;;19.98;;
16856;SDS011;8544;51.312;12.276;2022-10-17T10:12:15;22.60;;;21.50;;
16856;SDS011;8544;51.312;12.276;2022-10-17T10:14:45;28.95;;;27.48;;
16856;SDS011;8544;51.312;12.276;2022-10-17T10:17:29;19.65;;;18.73;;
16856;SDS011;8544;51.312;12.276;2022-10-17T10:20:00;16.42;;;15.70;;
16856;SDS011;8544;51.312;12.276;2022-10-17T10:22:29;22.05;;;20.95;;
16856;SDS011;8544;51.312;12.276;2022-10-17T10:25:05;27.25;;;25.85;;
16856;SDS011;8544;51.312;12.276;2022-10-17T10:27:38;26.45;;;25.15;;
16856;SDS011;8544;51.312;12.276;2022-10-17T10:30:15;27.70;;;26.30;;
16856;SDS011;8544;51.312;12.276;2022-10-17T10:32:47;31.52;;;29.77;;
16856;SDS011;8544;51.312;12.276;2022-10-17T10:35:19;31.48;;;29.88;;
16856;SDS011;8544;51.312;12.276;2022-10-17T10:37:51;35.88;;;33.45;;
16856;SDS011;8544;51.312;12.276;2022-10-17T10:40:21;31.52;;;29.92;;
16856;SDS011;8544;51.312;12.276;2022-10-17T10:42:51;31.45;;;29.85;;
16856;SDS011;8544;51.312;12.276;2022-10-17T10:45:21;33.33;;;31.63;;
16856;SDS011;8544;51.312;12.276;2022-10-17T10:50:54;36.92;;;35.03;;
16856;SDS011;8544;51.312;12.276;2022-10-17T10:53:26;32.55;;;30.88;;
16856;SDS011;8544;51.312;12.276;2022-10-17T10:56:02;34.60;;;32.80;;
16856;SDS011;8544;51.312;12.276;2022-10-17T10:58:38;32.88;;;31.17;;
16856;SDS011;8544;51.312;12.276;2022-10-17T11:01:11;35.88;;;33.97;;
16856;SDS011;8544;51.312;12.276;2022-10-17T11:03:44;33.90;;;32.10;;
16856;SDS011;8544;51.312;12.276;2022-10-17T11:06:25;36.85;;;34.75;;
16856;SDS011;8544;51.312;12.276;2022-10-17T11:08:59;35.13;;;33.33;;
16856;SDS011;8544;51.312;12.276;2022-10-17T11:11:37;36.15;;;34.25;;
16856;SDS011;8544;51.312;12.276;2022-10-17T11:14:09;35.88;;;33.95;;
16856;SDS011;8544;51.312;12.276;2022-10-17T11:16:40;33.65;;;31.88;;
16856;SDS011;8544;51.312;12.276;2022-10-17T11:19:13;33.33;;;31.63;;
16856;SDS011;8544;51.312;12.276;2022-10-17T11:21:54;33.70;;;31.90;;
16856;SDS011;8544;51.312;12.276;2022-10-17T11:24:24;30.25;;;28.75;;
16856;SDS011;8544;51.312;12.276;2022-10-17T11:26:58;37.65;;;35.65;;
16856;SDS011;8544;51.312;12.276;2022-10-17T11:29:58;33.33;;;31.63;;
16856;SDS011;8544;51.312;12.276;2022-10-17T11:32:27;36.13;;;34.22;;
16856;SDS011;8544;51.312;12.276;2022-10-17T11:35:06;32.05;;;30.42;;
16856;SDS011;8544;51.312;12.276;2022-10-17T11:37:36;44.13;;;41.75;;
16856;SDS011;8544;51.312;12.276;2022-10-17T11:40:08;31.83;;;30.23;;
16856;SDS011;8544;51.312;12.276;2022-10-17T11:42:49;31.60;;;30.00;;
16856;SDS011;8544;51.312;12.276;2022-10-17T11:45:19;32.60;;;30.90;;
16856;SDS011;8544;51.312;12.276;2022-10-17T11:47:49;32.00;;;30.38;;
16856;SDS011;8544;51.312;12.276;2022-10-17T11:50:24;33.28;;;31.58;;
16856;SDS011;8544;51.312;12.276;2022-10-17T11:53:15;36.28;;;34.38;;
16856;SDS011;8544;51.312;12.276;2022-10-17T11:55:45;36.72;;;34.83;;
16856;SDS011;8544;51.312;12.276;2022-10-17T11:58:17;40.00;;;37.90;;
16856;SDS011;8544;51.312;12.276;2022-10-17T12:00:55;33.85;;;32.10;;
16856;SDS011;8544;51.312;12.276;2022-10-17T12:03:50;36.47;;;34.58;;
16856;SDS011;8544;51.312;12.276;2022-10-17T12:06:27;32.47;;;30.77;;
16856;SDS011;8544;51.312;12.276;2022-10-17T12:09:01;33.25;;;31.45;;
16856;SDS011;8544;51.312;12.276;2022-10-17T12:11:38;33.33;;;31.63;;
16856;SDS011;8544;51.312;12.276;2022-10-17T12:23:19;25.15;;;23.95;;
16856;SDS011;8544;51.312;12.276;2022-10-17T12:25:51;28.20;;;26.80;;
16856;SDS011;8544;51.312;12.276;2022-10-17T12:28:28;24.80;;;23.60;;
16856;SDS011;8544;51.312;12.276;2022-10-17T12:30:59;25.98;;;24.67;;
16856;SDS011;8544;51.312;12.276;2022-10-17T12:33:32;22.05;;;20.95;;
16856;SDS011;8544;51.312;12.276;2022-10-17T12:44:35;27.85;;;26.45;;
16856;SDS011;8544;51.312;12.276;2022-10-17T12:49:53;34.38;;;32.58;;
16856;SDS011;8544;51.312;12.276;2022-10-17T12:52:23;35.80;;;33.90;;
16856;SDS011;8544;51.312;12.276;2022-10-17T12:54:53;34.00;;;32.20;;
16856;SDS011;8544;51.312;12.276;2022-10-17T12:57:49;34.25;;;32.45;;
16856;SDS011;8544;51.312;12.276;2022-10-17T13:00:22;34.50;;;32.70;;
16856;SDS011;8544;51.312;12.276;2022-10-17T13:03:00;34.53;;;32.72;;
16856;SDS011;8544;51.312;12.276;2022-10-17T13:05:46;34.75;;;32.30;;
16856;SDS011;8544;51.312;12.276;2022-10-17T13:08:15;42.67;;;39.60;;
16856;SDS011;8544;51.312;12.276;2022-10-17T13:10:48;37.80;;;35.78;;
16856;SDS011;8544;51.312;12.276;2022-10-17T13:13:19;36.17;;;34.28;;
16856;SDS011;8544;51.312;12.276;2022-10-17T13:15:52;37.05;;;35.13;;
16856;SDS011;8544;51.312;12.276;2022-10-17T13:18:22;38.17;;;36.17;;
16856;SDS011;8544;51.312;12.276;2022-10-17T13:20:56;33.00;;;31.30;;
16856;SDS011;8544;51.312;12.276;2022-10-17T13:23:27;32.33;;;30.63;;
16856;SDS011;8544;51.312;12.276;2022-10-17T13:26:02;36.40;;;34.50;;
16856;SDS011;8544;51.312;12.276;2022-10-17T13:28:33;32.65;;;30.95;;
16856;SDS011;8544;51.312;12.276;2022-10-17T13:31:06;54.17;;;51.25;;
16856;SDS011;8544;51.312;12.276;2022-10-17T13:33:37;34.92;;;33.13;;
16856;SDS011;8544;51.312;12.276;2022-10-17T13:36:13;53.42;;;50.53;;
16856;SDS011;8544;51.312;12.276;2022-10-17T13:39:08;33.75;;;31.95;;
16856;SDS011;8544;51.312;12.276;2022-10-17T13:41:40;33.50;;;31.80;;
16856;SDS011;8544;51.312;12.276;2022-10-17T13:44:10;34.00;;;31.90;;
16856;SDS011;8544;51.312;12.276;2022-10-17T13:46:43;34.30;;;32.50;;
16856;SDS011;8544;51.312;12.276;2022-10-17T13:49:15;34.67;;;32.88;;
16856;SDS011;8544;51.312;12.276;2022-10-17T13:51:44;33.47;;;31.77;;
16856;SDS011;8544;51.312;12.276;2022-10-17T13:54:16;34.28;;;32.47;;
16856;SDS011;8544;51.312;12.276;2022-10-17T13:56:44;33.47;;;31.48;;
16856;SDS011;8544;51.312;12.276;2022-10-17T13:59:18;38.33;;;36.30;;
16856;SDS011;8544;51.312;12.276;2022-10-17T14:05:00;27.17;;;25.80;;
16856;SDS011;8544;51.312;12.276;2022-10-17T14:07:50;28.05;;;26.63;;
16856;SDS011;8544;51.312;12.276;2022-10-17T14:10:42;30.75;;;29.15;;
16856;SDS011;8544;51.312;12.276;2022-10-17T14:20:06;27.65;;;26.15;;
16856;SDS011;8544;51.312;12.276;2022-10-17T14:22:58;74.82;;;70.68;;
16856;SDS011;8544;51.312;12.276;2022-10-17T14:25:48;25.63;;;24.33;;
16856;SDS011;8544;51.312;12.276;2022-10-17T14:35:15;57.50;;;54.38;;
16856;SDS011;8544;51.312;12.276;2022-10-17T14:38:05;24.60;;;23.40;;
16856;SDS011;8544;51.312;12.276;2022-10-17T14:41:27;39.42;;;37.38;;
16856;SDS011;8544;51.312;12.276;2022-10-17T14:44:20;23.00;;;21.90;;
16856;SDS011;8544;51.312;12.276;2022-10-17T14:47:00;24.88;;;23.58;;
16856;SDS011;8544;51.312;12.276;2022-10-17T14:50:02;22.92;;;21.83;;
16856;SDS011;8544;51.312;12.276;2022-10-17T14:52:50;22.55;;;21.45;;
16856;SDS011;8544;51.312;12.276;2022-10-17T14:55:25;26.27;;;24.98;;
16856;SDS011;8544;51.312;12.276;2022-10-17T14:57:58;23.88;;;22.67;;
16856;SDS011;8544;51.312;12.276;2022-10-17T15:00:43;28.40;;;26.98;;
16856;SDS011;8544;51.312;12.276;2022-10-17T15:06:28;20.55;;;19.55;;
16856;SDS011;8544;51.312;12.276;2022-10-17T15:09:09;20.23;;;19.05;;
16856;SDS011;8544;51.312;12.276;2022-10-17T15:11:41;20.30;;;19.30;;
16856;SDS011;8544;51.312;12.276;2022-10-17T15:14:10;21.98;;;20.92;;
16856;SDS011;8544;51.312;12.276;2022-10-17T15:19:38;22.15;;;21.08;;
16856;SDS011;8544;51.312;12.276;2022-10-17T15:22:08;19.35;;;18.45;;
16856;SDS011;8544;51.312;12.276;2022-10-17T15:24:37;21.13;;;20.02;;
16856;SDS011;8544;51.312;12.276;2022-10-17T15:27:14;21.02;;;20.02;;
16856;SDS011;8544;51.312;12.276;2022-10-17T15:29:50;20.35;;;19.35;;
16856;SDS011;8544;51.312;12.276;2022-10-17T15:32:27;18.63;;;17.73;;
16856;SDS011;8544;51.312;12.276;2022-10-17T15:34:55;18.45;;;17.55;;
16856;SDS011;8544;51.312;12.276;2022-10-17T15:37:25;26.23;;;24.92;;
16856;SDS011;8544;51.312;12.276;2022-10-17T15:40:04;18.42;;;17.55;;
16856;SDS011;8544;51.312;12.276;2022-10-17T15:43:11;15.27;;;14.57;;
16856;SDS011;8544;51.312;12.276;2022-10-17T15:45:44;16.73;;;15.95;;
16856;SDS011;8544;51.312;12.276;2022-10-17T15:48:15;17.13;;;16.33;;
16856;SDS011;8544;51.312;12.276;2022-10-17T15:50:44;17.77;;;16.98;;
16856;SDS011;8544;51.312;12.276;2022-10-17T15:53:12;17.73;;;16.92;;
16856;SDS011;8544;51.312;12.276;2022-10-17T15:55:40;19.15;;;18.25;;
16856;SDS011;8544;51.312;12.276;2022-10-17T15:58:13;19.63;;;18.73;;
16856;SDS011;8544;51.312;12.276;2022-10-17T16:00:42;19.80;;;18.88;;
16856;SDS011;8544;51.312;12.276;2022-10-17T16:03:18;20.20;;;19.20;;
16856;SDS011;8544;51.312;12.276;2022-10-17T16:05:47;24.20;;;23.00;;
16856;SDS011;8544;51.312;12.276;2022-10-17T16:08:15;26.67;;;25.17;;
16856;SDS011;8544;51.312;12.276;2022-10-17T16:10:43;31.55;;;29.90;;
16856;SDS011;8544;51.312;12.276;2022-10-17T16:13:13;31.25;;;29.67;;
16856;SDS011;8544;51.312;12.276;2022-10-17T16:15:42;30.33;;;28.77;;
16856;SDS011;8544;51.312;12.276;2022-10-17T16:18:13;31.92;;;30.30;;
16856;SDS011;8544;51.312;12.276;2022-10-17T16:20:41;32.65;;;30.98;;
16856;SDS011;8544;51.312;12.276;2022-10-17T16:23:15;35.87;;;34.00;;
16856;SDS011;8544;51.312;12.276;2022-10-17T16:25:43;40.17;;;37.80;;
16856;SDS011;8544;51.312;12.276;2022-10-17T16:28:15;40.60;;;38.47;;
16856;SDS011;8544;51.312;12.276;2022-10-17T16:30:43;39.73;;;37.60;;
16856;SDS011;8544;51.312;12.276;2022-10-17T16:33:11;40.27;;;38.17;;
16856;SDS011;8544;51.312;12.276;2022-10-17T16:35:42;45.83;;;43.40;;
16856;SDS011;8544;51.312;12.276;2022-10-17T16:38:11;50.50;;;47.77;;
16856;SDS011;8544;51.312;12.276;2022-10-17T16:40:40;56.20;;;53.13;;
16856;SDS011;8544;51.312;12.276;2022-10-17T16:43:13;63.70;;;60.23;;
16856;SDS011;8544;51.312;12.276;2022-10-17T16:45:42;66.97;;;63.33;;
16856;SDS011;8544;51.312;12.276;2022-10-17T16:48:12;77.50;;;73.30;;
16856;SDS011;8544;51.312;12.276;2022-10-17T16:50:41;94.97;;;89.60;;
16856;SDS011;8544;51.312;12.276;2022-10-17T16:53:09;87.03;;;82.37;;
16856;SDS011;8544;51.312;12.276;2022-10-17T16:55:37;96.53;;;89.80;;
16856;SDS011;8544;51.312;12.276;2022-10-17T16:58:05;111.10;;;104.97;;
16856;SDS011;8544;51.312;12.276;2022-10-17T17:00:46;109.37;;;103.33;;
16856;SDS011;8544;51.312;12.276;2022-10-17T17:03:14;110.53;;;104.57;;
16856;SDS011;8544;51.312;12.276;2022-10-17T17:05:48;107.60;;;100.77;;
16856;SDS011;8544;51.312;12.276;2022-10-17T17:08:16;107.60;;;101.73;;
16856;SDS011;8544;51.312;12.276;2022-10-17T17:10:43;111.03;;;105.03;;
16856;SDS011;8544;51.312;12.276;2022-10-17T17:13:12;111.07;;;105.03;;
16856;SDS011;8544;51.312;12.276;2022-10-17T17:15:39;107.43;;;101.63;;
16856;SDS011;8544;51.312;12.276;2022-10-17T17:18:12;107.53;;;101.73;;
16856;SDS011;8544;51.312;12.276;2022-10-17T17:20:41;105.50;;;99.80;;
16856;SDS011;8544;51.312;12.276;2022-10-17T17:23:08;101.37;;;95.87;;
16856;SDS011;8544;51.312;12.276;2022-10-17T17:25:43;84.37;;;79.73;;
16856;SDS011;8544;51.312;12.276;2022-10-17T17:28:11;76.33;;;72.17;;
16856;SDS011;8544;51.312;12.276;2022-10-17T17:30:40;66.87;;;62.87;;
16856;SDS011;8544;51.312;12.276;2022-10-17T17:33:08;85.30;;;80.60;;
16856;SDS011;8544;51.312;12.276;2022-10-17T17:35:38;99.43;;;94.03;;
16856;SDS011;8544;51.312;12.276;2022-10-17T17:38:07;65.90;;;62.27;;
16856;SDS011;8544;51.312;12.276;2022-10-17T17:40:34;55.90;;;52.90;;
16856;SDS011;8544;51.312;12.276;2022-10-17T17:43:04;45.67;;;43.20;;
16856;SDS011;8544;51.312;12.276;2022-10-17T17:45:31;44.13;;;41.77;;
16856;SDS011;8544;51.312;12.276;2022-10-17T17:48:01;37.67;;;35.63;;
16856;SDS011;8544;51.312;12.276;2022-10-17T17:50:28;44.33;;;41.97;;
16856;SDS011;8544;51.312;12.276;2022-10-17T17:52:59;44.67;;;42.27;;
16856;SDS011;8544;51.312;12.276;2022-10-17T17:55:27;35.33;;;33.20;;
16856;SDS011;8544;51.312;12.276;2022-10-17T17:57:56;31.23;;;29.60;;
16856;SDS011;8544;51.312;12.276;2022-10-17T18:00:24;29.77;;;28.27;;
16856;SDS011;8544;51.312;12.276;2022-10-17T18:02:55;38.20;;;35.93;;
16856;SDS011;8544;51.312;12.276;2022-10-17T18:05:29;25.17;;;23.90;;
16856;SDS011;8544;51.312;12.276;2022-10-17T18:07:57;21.67;;;20.63;;
16856;SDS011;8544;51.312;12.276;2022-10-17T18:10:33;25.83;;;24.43;;
16856;SDS011;8544;51.312;12.276;2022-10-17T18:13:01;22.67;;;21.53;;
16856;SDS011;8544;51.312;12.276;2022-10-17T18:15:29;21.57;;;20.50;;
16856;SDS011;8544;51.312;12.276;2022-10-17T18:17:58;24.70;;;23.37;;
16856;SDS011;8544;51.312;12.276;2022-10-17T18:20:30;29.70;;;28.20;;
16856;SDS011;8544;51.312;12.276;2022-10-17T18:22:58;29.70;;;28.10;;
16856;SDS011;8544;51.312;12.276;2022-10-17T18:25:31;30.20;;;28.67;;
16856;SDS011;8544;51.312;12.276;2022-10-17T18:27:59;33.83;;;32.07;;
16856;SDS011;8544;51.312;12.276;2022-10-17T18:30:27;41.80;;;39.53;;
16856;SDS011;8544;51.312;12.276;2022-10-17T18:32:59;36.60;;;34.67;;
16856;SDS011;8544;51.312;12.276;2022-10-17T18:35:28;35.50;;;33.63;;
16856;SDS011;8544;51.312;12.276;2022-10-17T18:37:55;34.20;;;32.40;;
16856;SDS011;8544;51.312;12.276;2022-10-17T18:40:32;36.10;;;34.10;;
16856;SDS011;8544;51.312;12.276;2022-10-17T18:43:29;33.50;;;31.20;;
16856;SDS011;8544;51.312;12.276;2022-10-17T18:46:12;33.23;;;31.47;;
16856;SDS011;8544;51.312;12.276;2022-10-17T18:48:49;34.77;;;32.93;;
16856;SDS011;8544;51.312;12.276;2022-10-17T18:51:30;36.43;;;34.50;;
16856;SDS011;8544;51.312;12.276;2022-10-17T18:57:55;29.53;;;27.97;;
16856;SDS011;8544;51.312;12.276;2022-10-17T19:01:21;27.47;;;25.87;;
16856;SDS011;8544;51.312;12.276;2022-10-17T19:04:05;25.70;;;24.27;;
16856;SDS011;8544;51.312;12.276;2022-10-17T19:06:46;23.80;;;22.60;;
16856;SDS011;8544;51.312;12.276;2022-10-17T19:09:50;25.47;;;23.97;;
16856;SDS011;8544;51.312;12.276;2022-10-17T19:13:42;24.20;;;22.97;;
16856;SDS011;8544;51.312;12.276;2022-10-17T19:19:23;27.57;;;26.10;;
16856;SDS011;8544;51.312;12.276;2022-10-17T19:21:59;32.43;;;30.70;;
16856;SDS011;8544;51.312;12.276;2022-10-17T19:24:36;33.27;;;31.53;;
16856;SDS011;8544;51.312;12.276;2022-10-17T19:27:53;34.67;;;32.67;;